createdAt,value
2018-01-15T00:01:43.267Z,101130.56
2018-01-15T00:04:10.841Z,101125.48
2018-01-15T00:06:38.390Z,101121.20
2018-01-15T00:09:05.941Z,101118.41
2018-01-15T00:11:33.488Z,101108.89
2018-01-15T00:14:01.075Z,101109.48
2018-01-15T00:16:28.606Z,101101.28
2018-01-15T00:18:56.198Z,101096.39
2018-01-15T00:21:23.767Z,101091.77
2018-01-15T00:23:51.332Z,101094.09
2018-01-15T00:26:18.911Z,101091.27
2018-01-15T00:28:46.472Z,101083.86
2018-01-15T00:31:14.120Z,101082.27
2018-01-15T00:33:42.453Z,101089.66
2018-01-15T00:36:09.995Z,101075.94
2018-01-15T00:38:37.529Z,101074.53
2018-01-15T00:41:05.096Z,101074.73
2018-01-15T00:43:32.680Z,101067.75
2018-01-15T00:46:00.258Z,101061.61
2018-01-15T00:48:27.832Z,101063.58
2018-01-15T00:50:55.394Z,101061.80
2018-01-15T00:53:22.959Z,101048.67
2018-01-15T00:55:50.781Z,101042.93
2018-01-15T00:58:18.451Z,101045.94
2018-01-15T01:00:46.000Z,101043.63
2018-01-15T01:03:13.510Z,101037.29
2018-01-15T01:05:41.082Z,101026.08
2018-01-15T01:08:08.670Z,101027.59
2018-01-15T01:10:36.279Z,101025.20
2018-01-15T01:13:03.841Z,101022.23
2018-01-15T01:15:31.388Z,101026.80
2018-01-15T01:17:58.964Z,101022.56
2018-01-15T01:20:26.520Z,101011.59
2018-01-15T01:22:54.399Z,101007.13
2018-01-15T01:25:21.911Z,101011.78
2018-01-15T01:27:49.641Z,101009.27
2018-01-15T01:30:17.307Z,101018.02
2018-01-15T01:32:44.817Z,101005.14
2018-01-15T01:35:12.365Z,101008.38
2018-01-15T01:37:39.936Z,101001.75
2018-01-15T01:40:07.456Z,101001.73
2018-01-15T01:42:34.980Z,100997.77
2018-01-15T01:45:02.556Z,100987.11
2018-01-15T01:47:30.081Z,100978.16
2018-01-15T01:49:57.797Z,100975.52
2018-01-15T01:52:25.365Z,100973.98
2018-01-15T01:54:52.883Z,100966.95
2018-01-15T01:57:20.455Z,100961.84
2018-01-15T01:59:47.989Z,100960.31
2018-01-15T02:02:15.702Z,100961.45
2018-01-15T02:04:43.281Z,100958.91
2018-01-15T02:07:10.857Z,100945.59
2018-01-15T02:09:38.559Z,100937.92
2018-01-15T02:12:06.172Z,100925.93
2018-01-15T02:14:33.774Z,100926.05
2018-01-15T02:17:01.292Z,100929.56
2018-01-15T02:19:28.860Z,100924.06
2018-01-15T02:21:56.399Z,100925.42
2018-01-15T02:24:23.911Z,100915.17
2018-01-15T02:26:51.482Z,100924.23
2018-01-15T02:29:19.078Z,100923.60
2018-01-15T02:31:46.656Z,100922.17
2018-01-15T02:34:14.195Z,100924.84
2018-01-15T02:36:41.708Z,100910.86
2018-01-15T02:39:09.289Z,100912.89
2018-01-15T02:41:36.830Z,100909.48
2018-01-15T02:44:04.396Z,100905.58
2018-01-15T02:46:31.952Z,100909.27
2018-01-15T02:48:59.479Z,100905.02
2018-01-15T02:51:27.053Z,100890.67
2018-01-15T02:53:54.586Z,100883.37
2018-01-15T02:56:22.150Z,100874.81
2018-01-15T02:58:49.659Z,100882.84
2018-01-15T03:01:17.205Z,100870.66
2018-01-15T03:03:44.804Z,100861.39
2018-01-15T03:06:12.314Z,100857.44
2018-01-15T03:08:39.861Z,100854.59
2018-01-15T03:11:07.424Z,100855.38
2018-01-15T03:13:34.973Z,100838.62
2018-01-15T03:16:02.545Z,100835.75
2018-01-15T03:18:30.103Z,100838.98
2018-01-15T03:20:57.643Z,100831.16
2018-01-15T03:23:25.277Z,100827.58
2018-01-15T03:25:52.857Z,100816.91
2018-01-15T03:28:20.502Z,100818.49
2018-01-15T03:30:48.078Z,100815.88
2018-01-15T03:33:15.625Z,100802.95
2018-01-15T03:35:43.213Z,100794.11
2018-01-15T03:38:10.750Z,100800.77
2018-01-15T03:40:38.303Z,100789.28
2018-01-15T03:43:05.885Z,100786.13
2018-01-15T03:45:33.437Z,100780.87
2018-01-15T03:48:01.040Z,100774.07
2018-01-15T03:50:29.008Z,100771.35
2018-01-15T03:52:56.557Z,100770.40
2018-01-15T03:55:24.109Z,100768.08
2018-01-15T03:57:52.251Z,100763.61
2018-01-15T04:00:19.880Z,100764.09
2018-01-15T04:02:47.433Z,100764.20
2018-01-15T04:05:15.037Z,100758.19
2018-01-15T04:07:42.587Z,100753.64
2018-01-15T04:10:10.145Z,100747.75
2018-01-15T04:12:37.725Z,100748.02
2018-01-15T04:15:05.257Z,100739.23
2018-01-15T04:17:32.881Z,100731.07
2018-01-15T04:20:00.390Z,100737.53
2018-01-15T04:22:27.938Z,100724.78
2018-01-15T04:24:55.607Z,100716.42
2018-01-15T04:27:23.126Z,100715.27
2018-01-15T04:29:50.980Z,100708.16
2018-01-15T04:32:18.500Z,100708.58
2018-01-15T04:34:46.023Z,100694.44
2018-01-15T04:37:13.580Z,100692.03
2018-01-15T04:39:41.192Z,100682.31
2018-01-15T04:42:08.753Z,100677.65
2018-01-15T04:44:36.300Z,100665.89
2018-01-15T04:47:03.911Z,100666.80
2018-01-15T04:49:31.545Z,100665.90
2018-01-15T04:51:59.101Z,100659.91
2018-01-15T04:54:26.690Z,100654.67
2018-01-15T04:56:54.288Z,100648.03
2018-01-15T04:59:21.803Z,100647.15
2018-01-15T05:01:49.352Z,100644.72
2018-01-15T05:04:16.964Z,100639.63
2018-01-15T05:06:44.496Z,100629.75
2018-01-15T05:09:12.065Z,100632.12
2018-01-15T05:11:40.043Z,100620.14
2018-01-15T05:14:07.601Z,100605.64
2018-01-15T05:16:35.158Z,100603.40
2018-01-15T05:19:02.704Z,100599.48
2018-01-15T05:21:30.249Z,100596.48
2018-01-15T05:23:57.838Z,100589.95
2018-01-15T05:26:25.421Z,100583.33
2018-01-15T05:28:53.034Z,100580.98
2018-01-15T05:31:20.598Z,100581.11
2018-01-15T05:33:48.163Z,100569.34
2018-01-15T05:36:15.708Z,100558.66
2018-01-15T05:38:43.265Z,100553.89
2018-01-15T05:41:10.866Z,100543.97
2018-01-15T05:43:38.392Z,100546.06
2018-01-15T05:46:05.945Z,100540.53
2018-01-15T05:48:33.516Z,100545.47
2018-01-15T05:51:01.070Z,100540.75
2018-01-15T05:53:28.615Z,100540.34
2018-01-15T05:55:56.132Z,100539.86
2018-01-15T05:58:23.738Z,100537.19
2018-01-15T06:00:51.302Z,100536.13
2018-01-15T06:03:18.848Z,100520.44
2018-01-15T06:05:46.391Z,100512.94
2018-01-15T06:08:13.969Z,100506.98
2018-01-15T06:10:41.487Z,100505.55
2018-01-15T06:13:09.033Z,100500.14
2018-01-15T06:15:36.910Z,100514.31
2018-01-15T06:18:04.481Z,100505.06
2018-01-15T06:20:32.038Z,100504.45
2018-01-15T06:22:59.974Z,100494.55
2018-01-15T06:25:27.533Z,100496.30
2018-01-15T06:27:55.113Z,100483.73
2018-01-15T06:30:22.746Z,100488.64
2018-01-15T06:32:50.270Z,100482.17
2018-01-15T06:35:17.836Z,100480.73
2018-01-15T06:37:45.353Z,100473.27
2018-01-15T06:40:12.917Z,100474.77
2018-01-15T06:42:40.525Z,100477.98
2018-01-15T06:45:08.081Z,100460.23
2018-01-15T06:47:35.592Z,100457.86
2018-01-15T06:50:03.177Z,100454.52
2018-01-15T06:52:30.691Z,100449.28
2018-01-15T06:54:58.261Z,100446.92
2018-01-15T06:57:25.846Z,100446.67
2018-01-15T06:59:53.424Z,100448.09
2018-01-15T07:02:20.938Z,100444.52
2018-01-15T07:04:48.475Z,100430.14
2018-01-15T07:07:16.034Z,100434.46
2018-01-15T07:09:43.603Z,100431.59
2018-01-15T07:12:11.115Z,100428.88
2018-01-15T07:14:38.667Z,100422.57
2018-01-15T07:17:06.180Z,100416.37
2018-01-15T07:19:33.727Z,100415.70
2018-01-15T07:22:01.288Z,100409.42
2018-01-15T07:24:28.894Z,100393.66
2018-01-15T07:26:56.426Z,100388.42
2018-01-15T07:29:23.949Z,100394.24
2018-01-15T07:31:51.516Z,100393.59
2018-01-15T07:34:19.097Z,100391.02
2018-01-15T07:36:46.679Z,100387.42
2018-01-15T07:39:14.229Z,100378.17
2018-01-15T07:41:41.818Z,100376.38
2018-01-15T07:44:09.370Z,100365.34
2018-01-15T07:46:36.978Z,100363.29
2018-01-15T07:49:04.533Z,100362.97
2018-01-15T07:51:32.077Z,100359.71
2018-01-15T07:53:59.735Z,100355.08
2018-01-15T07:56:27.348Z,100344.50
2018-01-15T07:58:54.913Z,100342.72
2018-01-15T08:01:22.452Z,100342.84
2018-01-15T08:03:49.982Z,100345.73
2018-01-15T08:06:17.524Z,100334.15
2018-01-15T08:08:45.106Z,100336.85
2018-01-15T08:11:12.731Z,100329.17
2018-01-15T08:13:40.322Z,100318.77
2018-01-15T08:16:07.895Z,100316.38
2018-01-15T08:18:35.454Z,100318.98
2018-01-15T08:21:03.004Z,100316.02
2018-01-15T08:23:30.542Z,100294.09
2018-01-15T08:25:58.082Z,100296.17
2018-01-15T08:28:25.684Z,100300.23
2018-01-15T08:30:53.314Z,100288.05
2018-01-15T08:33:20.866Z,100290.31
2018-01-15T08:35:48.440Z,100279.36
2018-01-15T08:38:16.138Z,100260.52
2018-01-15T08:40:43.687Z,100261.83
2018-01-15T08:43:11.285Z,100247.63
2018-01-15T08:45:38.808Z,100253.95
2018-01-15T08:48:06.324Z,100256.48
2018-01-15T08:50:33.902Z,100247.16
2018-01-15T08:53:01.428Z,100237.23
2018-01-15T08:55:29.025Z,100253.23
2018-01-15T08:57:56.568Z,100243.11
2018-01-15T09:00:24.084Z,100249.51
2018-01-15T09:02:51.689Z,100244.89
2018-01-15T09:05:19.333Z,100243.30
2018-01-15T09:07:46.875Z,100233.37
2018-01-15T09:10:14.420Z,100239.56
2018-01-15T09:12:41.999Z,100237.88
2018-01-15T09:15:09.508Z,100216.13
2018-01-15T09:17:37.060Z,100229.50
2018-01-15T09:20:04.773Z,100222.50
2018-01-15T09:22:32.311Z,100218.59
2018-01-15T09:24:59.866Z,100216.19
2018-01-15T09:27:27.573Z,100210.72
2018-01-15T09:29:55.491Z,100209.05
2018-01-15T09:32:23.042Z,100201.70
2018-01-15T09:34:50.571Z,100201.05
2018-01-15T09:37:18.150Z,100200.54
2018-01-15T09:39:45.750Z,100189.69
2018-01-15T09:42:13.511Z,100185.68
2018-01-15T09:44:41.069Z,100171.06
2018-01-15T09:47:08.592Z,100179.87
2018-01-15T09:49:36.177Z,100159.97
2018-01-15T09:52:03.718Z,100156.56
2018-01-15T09:54:31.294Z,100163.13
2018-01-15T09:56:59.274Z,100157.73
2018-01-15T09:59:26.835Z,100148.70
2018-01-15T10:01:54.447Z,100140.84
2018-01-15T10:04:22.024Z,100142.80
2018-01-15T10:06:49.684Z,100137.55
2018-01-15T10:09:17.237Z,100122.98
2018-01-15T10:11:44.752Z,100110.92
2018-01-15T10:14:12.412Z,100120.74
2018-01-15T10:16:39.972Z,100128.61
2018-01-15T10:19:07.517Z,100124.96
2018-01-15T10:21:35.111Z,100112.11
2018-01-15T10:24:02.614Z,100103.56
2018-01-15T10:26:30.158Z,100098.06
2018-01-15T10:28:57.807Z,100089.00
2018-01-15T10:31:25.311Z,100068.66
2018-01-15T10:33:52.922Z,100068.40
2018-01-15T10:36:20.476Z,100051.33
2018-01-15T10:38:47.987Z,100048.56
2018-01-15T10:41:15.556Z,100034.02
2018-01-15T10:43:43.101Z,100018.12
2018-01-15T10:46:10.750Z,100018.12
2018-01-15T10:48:38.315Z,99996.73
2018-01-15T10:51:05.861Z,99998.70
2018-01-15T10:53:33.411Z,99998.17
2018-01-15T10:56:01.007Z,99980.45
2018-01-15T10:58:28.549Z,99960.38
2018-01-15T11:00:56.104Z,99953.66
2018-01-15T11:03:23.636Z,99939.98
2018-01-15T11:05:51.228Z,99925.52
2018-01-15T11:08:18.914Z,99932.22
2018-01-15T11:10:46.582Z,99917.64
2018-01-15T11:13:14.120Z,99906.03
2018-01-15T11:15:41.703Z,99905.36
2018-01-15T11:18:09.220Z,99887.36
2018-01-15T11:20:36.774Z,99890.61
2018-01-15T11:23:04.321Z,99879.84
2018-01-15T11:25:31.899Z,99867.21
2018-01-15T11:27:59.477Z,99865.00
2018-01-15T11:30:27.025Z,99858.88
2018-01-15T11:32:54.573Z,99847.13
2018-01-15T11:35:22.162Z,99833.23
2018-01-15T11:37:49.717Z,99831.74
2018-01-15T11:40:17.228Z,99815.22
2018-01-15T11:42:44.768Z,99805.52
2018-01-15T11:45:12.312Z,99793.36
2018-01-15T11:47:39.879Z,99780.71
2018-01-15T11:50:07.425Z,99773.25
2018-01-15T11:52:34.992Z,99754.83
2018-01-15T11:55:02.541Z,99748.84
2018-01-15T11:57:30.121Z,99738.32
2018-01-15T11:59:57.631Z,99721.67
2018-01-15T12:02:25.186Z,99712.47
2018-01-15T12:04:52.733Z,99709.41
2018-01-15T12:07:20.285Z,99698.94
2018-01-15T12:09:47.833Z,99700.81
2018-01-15T12:12:15.347Z,99691.70
2018-01-15T12:14:42.880Z,99674.91
2018-01-15T12:17:10.374Z,99674.34
2018-01-15T12:19:38.007Z,99665.08
2018-01-15T12:22:05.544Z,99669.10
2018-01-15T12:24:33.102Z,99654.70
2018-01-15T12:27:00.738Z,99639.67
2018-01-15T12:29:28.629Z,99636.28
2018-01-15T12:31:56.165Z,99622.88
2018-01-15T12:34:23.675Z,99603.81
2018-01-15T12:36:51.299Z,99577.25
2018-01-15T12:39:19.819Z,99557.52
2018-01-15T12:41:47.356Z,99561.59
2018-01-15T12:44:14.891Z,99547.92
2018-01-15T12:46:42.795Z,99540.56
2018-01-15T12:49:10.306Z,99538.61
2018-01-15T12:51:37.844Z,99530.64
2018-01-15T12:54:05.408Z,99524.89
2018-01-15T12:56:32.986Z,99524.36
2018-01-15T12:59:00.836Z,99512.66
2018-01-15T13:01:28.385Z,99529.47
2018-01-15T13:03:55.898Z,99531.52
2018-01-15T13:06:23.513Z,99515.66
2018-01-15T13:09:07.850Z,99510.09
2018-01-15T13:11:35.581Z,99489.50
2018-01-15T13:14:03.170Z,99487.70
2018-01-15T13:16:30.699Z,99481.36
2018-01-15T13:18:58.216Z,99474.83
2018-01-15T13:21:25.777Z,99466.45
2018-01-15T13:23:53.392Z,99464.92
2018-01-15T13:26:20.940Z,99452.77
2018-01-15T13:28:48.452Z,99438.80
2018-01-15T13:31:16.053Z,99437.50
2018-01-15T13:33:43.596Z,99439.86
2018-01-15T13:36:11.162Z,99418.27
2018-01-15T13:38:38.715Z,99407.26
2018-01-15T13:41:06.298Z,99398.94
2018-01-15T13:43:33.835Z,99401.02
2018-01-15T13:46:01.428Z,99383.53
2018-01-15T13:48:28.934Z,99386.14
2018-01-15T13:50:56.481Z,99367.81
2018-01-15T13:53:24.024Z,99365.72
2018-01-15T13:55:51.573Z,99351.13
2018-01-15T13:58:19.170Z,99350.80
2018-01-15T14:00:46.715Z,99343.20
2018-01-15T14:03:14.301Z,99341.77
2018-01-15T14:05:41.871Z,99333.48
2018-01-15T14:08:09.813Z,99327.36
2018-01-15T14:10:37.377Z,99316.63
2018-01-15T14:13:04.891Z,99313.76
2018-01-15T14:15:32.423Z,99305.77
2018-01-15T14:18:00.341Z,99301.59
2018-01-15T14:20:27.899Z,99294.56
2018-01-15T14:22:55.514Z,99285.50
2018-01-15T14:25:23.430Z,99272.89
2018-01-15T14:27:51.001Z,99238.37
2018-01-15T14:30:18.634Z,99244.14
2018-01-15T14:32:46.214Z,99244.74
2018-01-15T14:35:13.773Z,99212.47
2018-01-15T14:37:41.295Z,99216.05
2018-01-15T14:40:08.981Z,99195.80
2018-01-15T14:42:36.566Z,99199.84
2018-01-15T14:45:04.103Z,99194.67
2018-01-15T14:47:31.642Z,99190.57
2018-01-15T14:49:59.189Z,99183.86
2018-01-15T14:52:26.765Z,99185.47
2018-01-15T14:54:54.316Z,99175.28
2018-01-15T14:57:22.288Z,99160.77
2018-01-15T14:59:49.837Z,99151.95
2018-01-15T15:02:17.341Z,99150.94
2018-01-15T15:04:44.986Z,99149.42
2018-01-15T15:07:12.498Z,99147.51
2018-01-15T15:09:40.038Z,99128.78
2018-01-15T15:12:07.583Z,99138.46
2018-01-15T15:14:35.141Z,99127.32
2018-01-15T15:17:02.685Z,99121.32
2018-01-15T15:19:30.271Z,99107.11
2018-01-15T15:21:57.875Z,99111.48
2018-01-15T15:24:25.460Z,99106.33
2018-01-15T15:26:52.976Z,99088.92
2018-01-15T15:29:20.536Z,99076.08
2018-01-15T15:31:48.080Z,99072.28
2018-01-15T15:34:15.988Z,99063.59
2018-01-15T15:36:43.507Z,99062.19
2018-01-15T15:39:11.789Z,99050.51
2018-01-15T15:41:39.340Z,99042.13
2018-01-15T15:44:06.884Z,99042.59
2018-01-15T15:46:34.638Z,99029.22
2018-01-15T15:49:02.416Z,99032.22
2018-01-15T15:51:29.964Z,99015.13
2018-01-15T15:53:57.477Z,99018.27
2018-01-15T15:56:25.071Z,99005.59
2018-01-15T15:58:52.631Z,99009.30
2018-01-15T16:01:20.198Z,98999.53
2018-01-15T16:03:47.812Z,98985.03
2018-01-15T16:06:15.361Z,98970.03
2018-01-15T16:08:42.909Z,98972.86
2018-01-15T16:11:10.766Z,98975.09
2018-01-15T16:13:38.317Z,98955.16
2018-01-15T16:16:05.847Z,98956.77
2018-01-15T16:18:33.456Z,98939.63
2018-01-15T16:21:01.044Z,98935.23
2018-01-15T16:23:28.562Z,98935.53
2018-01-15T16:25:56.211Z,98920.69
2018-01-15T16:28:23.770Z,98912.70
2018-01-15T16:30:51.353Z,98892.91
2018-01-15T16:33:18.956Z,98898.20
2018-01-15T16:35:46.471Z,98879.03
2018-01-15T16:38:13.983Z,98872.96
2018-01-15T16:40:41.574Z,98877.72
2018-01-15T16:43:09.188Z,98868.22
2018-01-15T16:45:36.741Z,98853.14
2018-01-15T16:48:04.283Z,98839.66
2018-01-15T16:50:31.946Z,98836.06
2018-01-15T16:52:59.520Z,98823.50
2018-01-15T16:55:27.077Z,98820.06
2018-01-15T16:57:54.655Z,98817.89
2018-01-15T17:00:22.212Z,98796.60
2018-01-15T17:02:49.775Z,98802.83
2018-01-15T17:05:17.319Z,98782.61
2018-01-15T17:07:44.946Z,98789.87
2018-01-15T17:10:12.579Z,98790.84
2018-01-15T17:12:40.125Z,98779.52
2018-01-15T17:15:07.745Z,98773.58
2018-01-15T17:17:35.268Z,98759.59
2018-01-15T17:20:02.818Z,98752.59
2018-01-15T17:22:30.392Z,98754.03
2018-01-15T17:24:57.936Z,98746.36
2018-01-15T17:27:25.460Z,98733.34
2018-01-15T17:29:53.111Z,98720.95
2018-01-15T17:32:20.686Z,98726.27
2018-01-15T17:34:48.196Z,98712.53
2018-01-15T17:37:15.821Z,98703.74
2018-01-15T17:39:43.341Z,98692.97
2018-01-15T17:42:10.907Z,98690.27
2018-01-15T17:44:38.655Z,98687.97
2018-01-15T17:47:06.331Z,98671.88
2018-01-15T17:49:33.888Z,98676.76
2018-01-15T17:52:01.469Z,98672.83
2018-01-15T17:54:29.018Z,98660.87
2018-01-15T17:56:56.530Z,98660.48
2018-01-15T17:59:24.097Z,98643.69
2018-01-15T18:01:51.758Z,98642.55
2018-01-15T18:04:19.305Z,98638.23
2018-01-15T18:06:46.836Z,98626.48
2018-01-15T18:09:14.381Z,98621.13
2018-01-15T18:11:41.948Z,98617.40
2018-01-15T18:14:09.873Z,98611.88
2018-01-15T18:16:37.392Z,98599.31
2018-01-15T18:19:04.908Z,98589.63
2018-01-15T18:21:32.499Z,98578.34
2018-01-15T18:24:00.022Z,98576.55
2018-01-15T18:26:27.571Z,98571.41
2018-01-15T18:28:55.171Z,98544.17
2018-01-15T18:31:22.824Z,98559.70
2018-01-15T18:33:50.394Z,98551.33
2018-01-15T18:36:17.978Z,98537.98
2018-01-15T18:38:45.549Z,98534.22
2018-01-15T18:41:13.070Z,98524.29
2018-01-15T18:43:40.757Z,98517.09
2018-01-15T18:46:08.298Z,98512.47
2018-01-15T18:48:35.822Z,98506.05
2018-01-15T18:51:03.409Z,98503.13
2018-01-15T18:53:31.000Z,98488.77
2018-01-15T18:55:58.886Z,98484.89
2018-01-15T18:58:26.438Z,98483.43
2018-01-15T19:00:53.935Z,98485.27
2018-01-15T19:03:21.441Z,98476.70
2018-01-15T19:05:48.975Z,98462.56
2018-01-15T19:08:16.552Z,98458.16
2018-01-15T19:10:44.295Z,98452.52
2018-01-15T19:13:11.853Z,98443.78
2018-01-15T19:15:39.392Z,98433.65
2018-01-15T19:18:06.929Z,98429.95
2018-01-15T19:20:34.513Z,98429.25
2018-01-15T19:23:02.065Z,98429.74
2018-01-15T19:25:29.599Z,98415.55
2018-01-15T19:27:57.242Z,98420.00
2018-01-15T19:30:24.900Z,98404.25
2018-01-15T19:32:52.684Z,98407.56
2018-01-15T19:38:22.458Z,98382.84
2018-01-15T19:40:50.101Z,98390.28
2018-01-15T19:49:09.367Z,98361.67
2018-01-15T19:51:42.470Z,98356.25
2018-01-15T19:54:15.653Z,98350.39
2018-01-15T19:56:48.781Z,98346.22
2018-01-15T19:59:21.977Z,98342.41
2018-01-15T20:01:55.170Z,98333.69
2018-01-15T20:07:35.391Z,98322.63
2018-01-15T20:10:08.708Z,98327.88
2018-01-15T20:12:36.464Z,98318.14
2018-01-15T20:15:04.027Z,98311.84
2018-01-15T20:17:31.740Z,98308.44
2018-01-15T20:19:59.318Z,98305.97
2018-01-15T20:22:26.989Z,98298.70
2018-01-15T20:24:54.851Z,98295.71
2018-01-15T20:27:22.443Z,98308.62
2018-01-15T20:29:49.985Z,98309.83
2018-01-15T20:32:17.671Z,98301.56
2018-01-15T20:34:45.226Z,98305.66
2018-01-15T20:37:12.731Z,98302.98
2018-01-15T20:39:40.290Z,98310.49
2018-01-15T20:42:08.193Z,98301.63
2018-01-15T20:44:35.745Z,98296.42
2018-01-15T20:47:03.285Z,98299.00
2018-01-15T20:49:30.885Z,98302.70
2018-01-15T20:51:58.424Z,98301.55
2018-01-15T20:54:25.935Z,98305.89
2018-01-15T20:56:53.505Z,98309.44
2018-01-15T20:59:21.065Z,98316.50
2018-01-15T21:01:48.765Z,98320.55
2018-01-15T21:04:16.309Z,98316.85
2018-01-15T21:06:43.836Z,98306.23
2018-01-15T21:09:11.433Z,98311.45
2018-01-15T21:11:38.952Z,98312.24
2018-01-15T21:14:06.521Z,98315.72
2018-01-15T21:16:34.103Z,98321.83
2018-01-15T21:19:01.677Z,98329.11
2018-01-15T21:21:29.248Z,98316.95
2018-01-15T21:23:56.784Z,98333.24
2018-01-15T21:26:24.324Z,98337.28
2018-01-15T21:28:51.967Z,98337.15
2018-01-15T21:31:19.584Z,98354.16
2018-01-15T21:33:47.104Z,98348.28
2018-01-15T21:36:14.648Z,98345.17
2018-01-15T21:38:42.249Z,98334.25
2018-01-15T21:41:09.812Z,98339.55
2018-01-15T21:43:37.337Z,98325.98
2018-01-15T21:46:04.927Z,98335.73
2018-01-15T21:48:32.520Z,98335.91
2018-01-15T21:51:00.077Z,98334.95
2018-01-15T21:53:27.623Z,98341.18
2018-01-15T21:55:55.163Z,98327.95
2018-01-15T21:58:22.750Z,98338.41
2018-01-15T22:00:50.258Z,98336.02
2018-01-15T22:03:17.807Z,98328.74
2018-01-15T22:05:45.343Z,98331.55
2018-01-15T22:08:12.877Z,98334.42
2018-01-15T22:10:40.405Z,98343.79
2018-01-15T22:13:07.956Z,98344.44
2018-01-15T22:15:35.760Z,98346.48
2018-01-15T22:18:03.437Z,98353.99
2018-01-15T22:20:30.989Z,98358.47
2018-01-15T22:22:58.922Z,98361.80
2018-01-15T22:25:26.473Z,98361.87
2018-01-15T22:27:53.997Z,98363.42
2018-01-15T22:30:21.613Z,98361.84
2018-01-15T22:32:49.148Z,98358.62
2018-01-15T22:35:16.742Z,98346.41
2018-01-15T22:37:44.321Z,98341.92
2018-01-15T22:40:11.899Z,98341.52
2018-01-15T22:42:39.452Z,98335.78
2018-01-15T22:45:07.031Z,98324.48
2018-01-15T22:47:34.572Z,98324.84
2018-01-15T22:50:02.101Z,98330.21
2018-01-15T22:52:29.674Z,98341.73
2018-01-15T22:54:57.191Z,98342.98
2018-01-15T22:57:24.770Z,98350.33
2018-01-15T22:59:52.385Z,98349.75
2018-01-15T23:02:19.899Z,98362.85
2018-01-15T23:04:47.453Z,98367.44
2018-01-15T23:07:15.026Z,98363.31
2018-01-15T23:09:42.589Z,98371.12
2018-01-15T23:12:10.188Z,98380.80
2018-01-15T23:14:37.740Z,98392.37
2018-01-15T23:17:05.297Z,98399.77
2018-01-15T23:19:32.958Z,98403.78
2018-01-15T23:22:00.542Z,98411.14
2018-01-15T23:24:28.144Z,98400.84
2018-01-15T23:26:55.693Z,98412.62
2018-01-15T23:29:23.254Z,98422.91
2018-01-15T23:31:50.790Z,98427.41
2018-01-15T23:34:18.353Z,98432.12
2018-01-15T23:36:45.944Z,98428.06
2018-01-15T23:39:13.489Z,98423.20
2018-01-15T23:41:41.004Z,98427.61
2018-01-15T23:44:08.539Z,98441.55
2018-01-15T23:46:36.109Z,98432.02
2018-01-15T23:49:03.752Z,98438.94
2018-01-15T23:51:31.264Z,98443.28
2018-01-15T23:53:58.780Z,98434.23
2018-01-15T23:56:26.354Z,98441.69
2018-01-15T23:58:53.905Z,98450.12
